Westminster, California
Current Conditions -  °F | °C
As of 11:13 PM on Sunday 21 Dec 2014 (Local Time) from KSLI Reporting Station
Haze Haze  
Wind Chill: 54°   Ceiling: Unl
Heat Index: 54°   Visibility: 3mi
Dew Point: 54°   Wind: 5mph
Humidity: 100%   Direction: 90°E
Pressure: 30.05"   Gusts: NA
Location:  33.76°N, 117.98°W
Report Text: KSLI 220713Z AUTO 09004KT 3SM BR CLR 12/12 A3005 RMK AO2
Loading
Personal Weather Stations






























Interactive Weather Map New forecast layout! Learn more

10-Day Weather Forecast

Advertisements
Track Severe Weather on mobile